createdAt,value
2022-09-14T00:01:36.138Z,100.00
2022-09-14T00:04:08.608Z,100.00
2022-09-14T00:06:37.842Z,100.00
2022-09-14T00:09:06.925Z,100.00
2022-09-14T00:11:35.476Z,100.00
2022-09-14T00:14:07.781Z,100.00
2022-09-14T00:16:41.023Z,100.00
2022-09-14T00:19:22.940Z,100.00
2022-09-14T00:21:55.151Z,100.00
2022-09-14T00:24:22.492Z,100.00
2022-09-14T00:26:52.248Z,100.00
2022-09-14T00:29:18.865Z,100.00
2022-09-14T00:31:48.324Z,100.00
2022-09-14T00:34:16.253Z,100.00
2022-09-14T00:36:46.335Z,100.00
2022-09-14T00:39:13.627Z,100.00
2022-09-14T00:41:43.030Z,100.00
2022-09-14T00:44:14.845Z,100.00
2022-09-14T00:46:44.152Z,100.00
2022-09-14T00:49:32.708Z,100.00
2022-09-14T00:52:04.861Z,100.00
2022-09-14T00:54:31.448Z,100.00
2022-09-14T00:57:02.121Z,100.00
2022-09-14T00:59:32.916Z,100.00
2022-09-14T01:01:59.561Z,100.00
2022-09-14T01:04:28.361Z,100.00
2022-09-14T01:07:00.946Z,100.00
2022-09-14T01:09:40.748Z,100.00
2022-09-14T01:12:21.099Z,100.00
2022-09-14T01:15:05.749Z,100.00
2022-09-14T01:17:46.892Z,100.00
2022-09-14T01:20:24.745Z,100.00
2022-09-14T01:23:12.526Z,100.00
2022-09-14T01:26:00.384Z,100.00
2022-09-14T01:28:38.201Z,100.00
2022-09-14T01:31:20.577Z,100.00
2022-09-14T01:34:13.362Z,100.00
2022-09-14T01:36:45.714Z,100.00
2022-09-14T01:39:13.934Z,100.00
2022-09-14T01:41:42.432Z,100.00
2022-09-14T01:44:23.714Z,100.00
2022-09-14T01:47:05.172Z,100.00
2022-09-14T01:49:42.252Z,100.00
2022-09-14T01:52:21.702Z,100.00
2022-09-14T01:54:54.507Z,100.00
2022-09-14T01:57:41.977Z,100.00
2022-09-14T02:00:12.443Z,100.00
2022-09-14T02:02:44.446Z,100.00
2022-09-14T02:05:29.514Z,100.00
2022-09-14T02:07:58.708Z,100.00
2022-09-14T02:10:29.222Z,100.00
2022-09-14T02:12:56.103Z,100.00
2022-09-14T02:15:23.210Z,100.00
2022-09-14T02:17:49.840Z,100.00
2022-09-14T02:20:28.900Z,100.00
2022-09-14T02:22:57.887Z,100.00
2022-09-14T02:25:26.658Z,100.00
2022-09-14T02:27:55.459Z,100.00
2022-09-14T02:30:24.663Z,100.00
2022-09-14T02:33:08.465Z,100.00
2022-09-14T02:35:41.240Z,100.00
2022-09-14T02:38:30.983Z,100.00
2022-09-14T02:41:12.081Z,100.00
2022-09-14T02:43:43.972Z,100.00
2022-09-14T02:46:29.243Z,100.00
2022-09-14T02:49:16.099Z,100.00
2022-09-14T02:52:02.570Z,100.00
2022-09-14T02:54:39.462Z,100.00
2022-09-14T02:57:06.251Z,100.00
2022-09-14T02:59:32.728Z,100.00
2022-09-14T03:02:00.944Z,100.00
2022-09-14T03:04:28.440Z,100.00
2022-09-14T03:06:54.932Z,100.00
2022-09-14T03:09:21.353Z,100.00
2022-09-14T03:11:47.832Z,100.00
2022-09-14T03:14:14.344Z,100.00
2022-09-14T03:16:40.828Z,100.00
2022-09-14T03:19:07.372Z,100.00
2022-09-14T03:21:36.447Z,100.00
2022-09-14T03:24:03.205Z,100.00
2022-09-14T03:26:29.753Z,100.00
2022-09-14T03:28:58.592Z,100.00
2022-09-14T03:31:26.479Z,100.00
2022-09-14T03:33:58.368Z,100.00
2022-09-14T03:36:26.904Z,100.00
2022-09-14T03:38:55.913Z,100.00
2022-09-14T03:41:23.261Z,100.00
2022-09-14T03:43:50.228Z,100.00
2022-09-14T03:46:21.616Z,100.00
2022-09-14T03:48:48.599Z,100.00
2022-09-14T03:51:16.041Z,100.00
2022-09-14T03:53:44.838Z,100.00
2022-09-14T03:56:17.475Z,100.00
2022-09-14T03:58:45.534Z,100.00
2022-09-14T04:01:14.868Z,100.00
2022-09-14T04:03:44.229Z,100.00
2022-09-14T04:06:11.375Z,100.00
2022-09-14T04:08:39.844Z,100.00
2022-09-14T04:11:11.764Z,100.00
2022-09-14T04:13:39.274Z,100.00
2022-09-14T04:16:05.721Z,100.00
2022-09-14T04:18:32.888Z,100.00
2022-09-14T04:21:08.464Z,100.00
2022-09-14T04:24:10.262Z,100.00
2022-09-14T04:26:27.119Z,100.00
2022-09-14T04:28:53.972Z,100.00
2022-09-14T04:31:20.630Z,100.00
2022-09-14T04:33:50.492Z,100.00
2022-09-14T04:36:19.796Z,100.00
2022-09-14T04:38:46.851Z,100.00
2022-09-14T04:41:18.168Z,100.00
2022-09-14T04:43:46.063Z,100.00
2022-09-14T04:46:18.833Z,100.00
2022-09-14T04:48:45.715Z,100.00
2022-09-14T04:51:16.692Z,100.00
2022-09-14T04:53:44.635Z,100.00
2022-09-14T04:56:13.164Z,100.00
2022-09-14T04:58:46.257Z,100.00
2022-09-14T05:01:21.995Z,100.00
2022-09-14T05:03:48.829Z,100.00
2022-09-14T05:06:26.805Z,100.00
2022-09-14T05:08:54.516Z,100.00
2022-09-14T05:11:26.692Z,100.00
2022-09-14T05:13:55.027Z,100.00
2022-09-14T05:16:23.255Z,100.00
2022-09-14T05:18:51.707Z,100.00
2022-09-14T05:21:20.095Z,100.00
2022-09-14T05:23:46.971Z,100.00
2022-09-14T05:26:14.419Z,100.00
2022-09-14T05:28:41.169Z,100.00
2022-09-14T05:31:10.324Z,100.00
2022-09-14T05:33:37.066Z,100.00
2022-09-14T05:36:08.224Z,100.00
2022-09-14T05:38:36.315Z,100.00
2022-09-14T05:41:02.985Z,100.00
2022-09-14T05:43:29.993Z,100.00
2022-09-14T05:45:56.489Z,100.00
2022-09-14T05:48:23.007Z,100.00
2022-09-14T05:50:58.089Z,100.00
2022-09-14T05:53:26.703Z,100.00
2022-09-14T05:56:10.693Z,100.00
2022-09-14T05:58:37.740Z,100.00
2022-09-14T06:01:41.527Z,100.00
2022-09-14T06:04:11.103Z,100.00
2022-09-14T06:06:37.586Z,100.00
2022-09-14T06:09:04.757Z,100.00
2022-09-14T06:11:36.125Z,100.00
2022-09-14T06:14:02.994Z,100.00
2022-09-14T06:16:29.681Z,100.00
2022-09-14T06:18:58.732Z,100.00
2022-09-14T06:21:29.405Z,100.00
2022-09-14T06:23:56.059Z,100.00
2022-09-14T06:26:22.778Z,100.00
2022-09-14T06:28:49.424Z,100.00
2022-09-14T06:31:17.721Z,100.00
2022-09-14T06:33:48.120Z,100.00
2022-09-14T06:36:17.828Z,100.00
2022-09-14T06:38:44.402Z,100.00
2022-09-14T06:41:13.671Z,100.00
2022-09-14T06:43:42.217Z,100.00
2022-09-14T06:46:20.085Z,100.00
2022-09-14T06:48:52.907Z,100.00
2022-09-14T06:51:29.983Z,100.00
2022-09-14T06:54:01.409Z,100.00
2022-09-14T06:56:33.526Z,100.00
2022-09-14T06:59:00.076Z,100.00
2022-09-14T07:01:29.882Z,100.00
2022-09-14T07:03:58.062Z,100.00
2022-09-14T07:06:26.527Z,100.00
2022-09-14T07:08:53.529Z,100.00
2022-09-14T07:11:23.592Z,100.00
2022-09-14T07:13:50.017Z,100.00
2022-09-14T07:16:16.906Z,100.00
2022-09-14T07:18:43.393Z,100.00
2022-09-14T07:21:15.077Z,100.00
2022-09-14T07:23:46.300Z,100.00
2022-09-14T07:26:15.444Z,100.00
2022-09-14T07:28:43.594Z,100.00
2022-09-14T07:31:22.804Z,100.00
2022-09-14T07:33:54.036Z,100.00
2022-09-14T07:36:21.543Z,100.00
2022-09-14T07:38:52.986Z,100.00
2022-09-14T07:41:29.837Z,100.00
2022-09-14T07:44:00.311Z,100.00
2022-09-14T07:46:33.236Z,100.00
2022-09-14T07:49:04.877Z,100.00
2022-09-14T07:51:32.634Z,100.00
2022-09-14T07:54:01.984Z,100.00
2022-09-14T07:56:29.019Z,100.00
2022-09-14T07:59:11.557Z,100.00
2022-09-14T08:01:44.240Z,100.00
2022-09-14T08:04:11.074Z,100.00
2022-09-14T08:06:37.703Z,100.00
2022-09-14T08:09:11.149Z,100.00
2022-09-14T08:11:38.028Z,100.00
2022-09-14T08:14:07.273Z,100.00
2022-09-14T08:16:34.861Z,100.00
2022-09-14T08:19:04.016Z,100.00
2022-09-14T08:21:32.145Z,100.00
2022-09-14T08:24:02.453Z,100.00
2022-09-14T08:26:30.023Z,100.00
2022-09-14T08:28:57.270Z,100.00
2022-09-14T08:31:25.358Z,100.00
2022-09-14T08:33:54.924Z,100.00
2022-09-14T08:36:22.641Z,100.00
2022-09-14T08:38:49.183Z,100.00
2022-09-14T08:41:25.366Z,100.00
2022-09-14T08:43:52.417Z,100.00
2022-09-14T08:46:49.647Z,100.00
2022-09-14T08:49:38.002Z,100.00
2022-09-14T08:52:05.292Z,100.00
2022-09-14T08:54:37.168Z,100.00
2022-09-14T08:57:39.160Z,100.00
2022-09-14T09:00:14.932Z,100.00
2022-09-14T09:02:50.643Z,100.00
2022-09-14T09:05:49.708Z,100.00
2022-09-14T09:08:24.622Z,100.00
2022-09-14T09:10:54.315Z,100.00
2022-09-14T09:13:25.439Z,100.00
2022-09-14T09:15:55.076Z,100.00
2022-09-14T09:18:43.056Z,100.00
2022-09-14T09:21:20.704Z,100.00
2022-09-14T09:23:47.142Z,100.00
2022-09-14T09:26:28.226Z,100.00
2022-09-14T09:28:57.988Z,100.00
2022-09-14T09:31:38.921Z,100.00
2022-09-14T09:34:06.411Z,100.00
2022-09-14T09:36:39.189Z,100.00
2022-09-14T09:39:06.152Z,100.00
2022-09-14T09:41:57.602Z,100.00
2022-09-14T09:44:26.300Z,100.00
2022-09-14T09:46:59.333Z,100.00
2022-09-14T09:49:31.486Z,100.00
2022-09-14T09:52:19.623Z,100.00
2022-09-14T09:54:52.352Z,100.00
2022-09-14T09:57:21.643Z,100.00
2022-09-14T09:59:48.578Z,100.00
2022-09-14T10:02:32.170Z,100.00
2022-09-14T10:05:01.652Z,100.00
2022-09-14T10:07:30.115Z,100.00
2022-09-14T10:09:58.693Z,100.00
2022-09-14T10:12:25.440Z,100.00
2022-09-14T10:15:05.327Z,100.00
2022-09-14T10:17:31.831Z,100.00
2022-09-14T10:19:59.017Z,100.00
2022-09-14T10:22:37.957Z,100.00
2022-09-14T10:25:22.943Z,100.00
2022-09-14T10:27:58.938Z,100.00
2022-09-14T10:30:38.204Z,100.00
2022-09-14T10:33:08.911Z,100.00
2022-09-14T10:35:45.879Z,100.00
2022-09-14T10:38:32.453Z,100.00
2022-09-14T10:41:31.266Z,100.00
2022-09-14T10:44:19.685Z,100.00
2022-09-14T10:47:04.672Z,100.00
2022-09-14T10:49:44.150Z,100.00
2022-09-14T10:52:13.999Z,100.00
2022-09-14T10:55:07.626Z,100.00
2022-09-14T10:57:49.789Z,100.00
2022-09-14T11:00:23.683Z,100.00
2022-09-14T11:03:16.217Z,100.00
2022-09-14T11:06:18.065Z,100.00
2022-09-14T11:09:05.509Z,100.00
2022-09-14T11:11:58.090Z,100.00
2022-09-14T11:14:42.900Z,100.00
2022-09-14T11:17:35.602Z,100.00
2022-09-14T11:20:26.587Z,100.00
2022-09-14T11:23:18.552Z,100.00
2022-09-14T11:26:08.276Z,100.00
2022-09-14T11:28:42.381Z,100.00
2022-09-14T11:31:55.291Z,100.00
2022-09-14T11:34:36.940Z,100.00
2022-09-14T11:37:19.180Z,100.00
2022-09-14T11:39:52.145Z,100.00
2022-09-14T11:42:27.868Z,100.00
2022-09-14T11:45:02.339Z,100.00
2022-09-14T11:47:44.225Z,100.00
2022-09-14T11:50:33.056Z,100.00
2022-09-14T11:53:15.062Z,100.00
2022-09-14T11:55:50.132Z,100.00
2022-09-14T11:58:31.297Z,100.00
2022-09-14T12:01:25.765Z,100.00
2022-09-14T12:03:54.245Z,100.00
2022-09-14T12:06:29.954Z,100.00
2022-09-14T12:09:21.126Z,100.00
2022-09-14T12:11:53.750Z,100.00
2022-09-14T12:14:32.670Z,100.00
2022-09-14T12:17:22.813Z,100.00
2022-09-14T12:19:55.623Z,100.00
2022-09-14T12:22:39.420Z,100.00
2022-09-14T12:25:05.871Z,100.00
2022-09-14T12:27:36.823Z,100.00
2022-09-14T12:30:38.409Z,96.12
2022-09-14T12:33:34.798Z,92.76
2022-09-14T12:36:05.504Z,88.99
2022-09-14T12:38:31.880Z,87.26
2022-09-14T12:41:09.443Z,88.94
2022-09-14T12:43:35.841Z,89.56
2022-09-14T12:46:04.093Z,88.48
2022-09-14T12:48:45.916Z,92.81
2022-09-14T12:51:36.594Z,89.95
2022-09-14T12:54:09.030Z,87.73
2022-09-14T12:57:02.707Z,85.91
2022-09-14T12:59:52.943Z,82.20
2022-09-14T13:03:05.796Z,85.57
2022-09-14T13:05:34.292Z,91.59
2022-09-14T13:08:01.737Z,91.49
2022-09-14T13:10:34.490Z,91.97
2022-09-14T13:13:05.381Z,94.97
2022-09-14T13:15:37.953Z,100.00
2022-09-14T13:18:17.958Z,99.57
2022-09-14T13:20:53.127Z,100.00
2022-09-14T13:23:42.133Z,100.00
2022-09-14T13:26:18.982Z,100.00
2022-09-14T13:28:48.000Z,100.00
2022-09-14T13:31:19.044Z,100.00
2022-09-14T13:33:50.772Z,100.00
2022-09-14T13:36:23.940Z,100.00
2022-09-14T13:38:53.184Z,100.00
2022-09-14T13:41:24.599Z,100.00
2022-09-14T13:43:55.991Z,100.00
2022-09-14T13:46:24.535Z,100.00
2022-09-14T13:48:52.313Z,100.00
2022-09-14T13:51:26.182Z,100.00
2022-09-14T13:54:15.779Z,100.00
2022-09-14T13:56:42.393Z,100.00
2022-09-14T13:59:09.099Z,100.00
2022-09-14T14:01:39.340Z,100.00
2022-09-14T14:04:24.066Z,100.00
2022-09-14T14:07:14.622Z,100.00
2022-09-14T14:09:53.314Z,100.00
2022-09-14T14:12:28.490Z,100.00
2022-09-14T14:14:58.068Z,100.00
2022-09-14T14:17:30.506Z,100.00
2022-09-14T14:19:59.430Z,100.00
2022-09-14T14:22:33.700Z,100.00
2022-09-14T14:25:17.040Z,100.00
2022-09-14T14:27:48.508Z,100.00
2022-09-14T14:30:17.640Z,100.00
2022-09-14T14:32:48.920Z,100.00
2022-09-14T14:35:18.622Z,100.00
2022-09-14T14:37:45.016Z,100.00
2022-09-14T14:40:12.731Z,100.00
2022-09-14T14:42:39.833Z,100.00
2022-09-14T14:45:07.095Z,100.00
2022-09-14T14:47:33.663Z,100.00
2022-09-14T14:50:00.276Z,100.00
2022-09-14T14:52:26.868Z,100.00
2022-09-14T14:54:53.301Z,100.00
2022-09-14T14:57:19.712Z,100.00
2022-09-14T14:59:47.012Z,100.00
2022-09-14T15:02:13.430Z,100.00
2022-09-14T15:04:42.275Z,100.00
2022-09-14T15:07:08.772Z,100.00
2022-09-14T15:09:35.465Z,100.00
2022-09-14T15:12:02.172Z,100.00
2022-09-14T15:14:31.255Z,100.00
2022-09-14T15:17:00.077Z,100.00
2022-09-14T15:19:26.987Z,100.00
2022-09-14T15:21:57.281Z,100.00
2022-09-14T15:24:27.124Z,100.00
2022-09-14T15:26:54.180Z,100.00
2022-09-14T15:29:20.619Z,100.00
2022-09-14T15:31:47.159Z,100.00
2022-09-14T15:34:16.133Z,100.00
2022-09-14T15:36:51.633Z,100.00
2022-09-14T15:39:23.341Z,100.00
2022-09-14T15:41:52.669Z,100.00
2022-09-14T15:44:19.635Z,100.00
2022-09-14T15:46:46.886Z,100.00
2022-09-14T15:49:17.918Z,100.00
2022-09-14T15:51:46.382Z,100.00
2022-09-14T15:54:13.542Z,100.00
2022-09-14T15:56:40.369Z,100.00
2022-09-14T15:59:07.325Z,100.00
2022-09-14T16:01:33.953Z,100.00
2022-09-14T16:04:10.866Z,100.00
2022-09-14T16:06:38.644Z,100.00
2022-09-14T16:09:07.253Z,100.00
2022-09-14T16:11:35.433Z,100.00
2022-09-14T16:14:07.441Z,100.00
2022-09-14T16:16:35.284Z,100.00
2022-09-14T16:19:10.850Z,100.00
2022-09-14T16:21:37.839Z,100.00
2022-09-14T16:24:07.733Z,100.00
2022-09-14T16:26:38.210Z,100.00
2022-09-14T16:29:08.292Z,100.00
2022-09-14T16:31:37.499Z,100.00
2022-09-14T16:34:12.939Z,100.00
2022-09-14T16:36:40.633Z,100.00
2022-09-14T16:39:11.373Z,100.00
2022-09-14T16:41:40.408Z,100.00
2022-09-14T16:44:06.984Z,100.00
2022-09-14T16:46:34.180Z,100.00
2022-09-14T16:49:00.793Z,100.00
2022-09-14T16:51:29.878Z,100.00
2022-09-14T16:53:57.607Z,100.00
2022-09-14T16:56:26.584Z,100.00
2022-09-14T16:58:55.084Z,100.00
2022-09-14T17:01:28.583Z,100.00
2022-09-14T17:03:56.543Z,100.00
2022-09-14T17:06:26.100Z,100.00
2022-09-14T17:08:54.764Z,100.00
2022-09-14T17:11:21.487Z,100.00
2022-09-14T17:13:47.970Z,100.00
2022-09-14T17:16:20.590Z,100.00
2022-09-14T17:18:51.122Z,100.00
2022-09-14T17:21:23.392Z,100.00
2022-09-14T17:23:50.214Z,100.00
2022-09-14T17:26:19.229Z,100.00
2022-09-14T17:28:47.443Z,100.00
2022-09-14T17:31:18.645Z,100.00
2022-09-14T17:33:45.954Z,100.00
2022-09-14T17:36:14.648Z,100.00
2022-09-14T17:38:42.766Z,100.00
2022-09-14T17:41:12.076Z,100.00
2022-09-14T17:43:40.183Z,100.00
2022-09-14T17:46:09.884Z,100.00
2022-09-14T17:48:38.678Z,100.00
2022-09-14T17:51:14.465Z,100.00
2022-09-14T17:53:44.016Z,100.00
2022-09-14T17:56:15.819Z,100.00
2022-09-14T17:58:43.596Z,100.00
2022-09-14T18:01:14.909Z,100.00
2022-09-14T18:03:44.026Z,100.00
2022-09-14T18:06:12.487Z,100.00
2022-09-14T18:08:42.242Z,100.00
2022-09-14T18:11:17.003Z,100.00
2022-09-14T18:13:46.172Z,100.00
2022-09-14T18:16:14.877Z,100.00
2022-09-14T18:18:42.406Z,100.00
2022-09-14T18:21:11.815Z,100.00
2022-09-14T18:23:38.313Z,100.00
2022-09-14T18:26:06.807Z,100.00
2022-09-14T18:28:34.616Z,100.00
2022-09-14T18:31:07.063Z,100.00
2022-09-14T18:33:33.966Z,100.00
2022-09-14T18:36:00.773Z,100.00
2022-09-14T18:38:30.097Z,100.00
2022-09-14T18:41:06.025Z,100.00
2022-09-14T18:43:32.802Z,100.00
2022-09-14T18:45:59.306Z,100.00
2022-09-14T18:48:26.270Z,100.00
2022-09-14T18:50:55.387Z,100.00
2022-09-14T18:53:21.770Z,100.00
2022-09-14T18:55:48.206Z,100.00
2022-09-14T18:58:16.863Z,100.00
2022-09-14T19:00:46.564Z,100.00
2022-09-14T19:03:13.389Z,100.00
2022-09-14T19:05:43.627Z,100.00
2022-09-14T19:08:13.436Z,100.00
2022-09-14T19:10:40.252Z,100.00
2022-09-14T19:13:07.783Z,100.00
2022-09-14T19:15:34.442Z,100.00
2022-09-14T19:18:00.958Z,100.00
2022-09-14T19:20:43.030Z,100.00
2022-09-14T19:23:13.795Z,100.00
2022-09-14T19:25:40.509Z,100.00
2022-09-14T19:28:07.633Z,100.00
2022-09-14T19:30:36.404Z,100.00
2022-09-14T19:33:03.057Z,100.00
2022-09-14T19:35:30.215Z,100.00
2022-09-14T19:37:57.838Z,100.00
2022-09-14T19:40:24.560Z,100.00
2022-09-14T19:42:51.917Z,100.00
2022-09-14T19:45:18.752Z,100.00
2022-09-14T19:47:45.698Z,100.00
2022-09-14T19:50:12.194Z,100.00
2022-09-14T19:52:38.688Z,100.00
2022-09-14T19:55:05.584Z,100.00
2022-09-14T19:57:32.303Z,100.00
2022-09-14T19:59:58.754Z,100.00
2022-09-14T20:02:25.556Z,100.00
2022-09-14T20:04:52.238Z,100.00
2022-09-14T20:07:19.102Z,100.00
2022-09-14T20:09:45.696Z,100.00
2022-09-14T20:12:12.335Z,100.00
2022-09-14T20:14:38.817Z,100.00
2022-09-14T20:17:06.446Z,100.00
2022-09-14T20:19:33.127Z,100.00
2022-09-14T20:21:59.542Z,100.00
2022-09-14T20:24:28.177Z,100.00
2022-09-14T20:26:59.337Z,100.00
2022-09-14T20:29:30.032Z,100.00
2022-09-14T20:31:57.168Z,100.00
2022-09-14T20:34:23.747Z,100.00
2022-09-14T20:36:52.093Z,100.00
2022-09-14T20:39:19.973Z,100.00
2022-09-14T20:41:46.768Z,100.00
2022-09-14T20:44:13.849Z,100.00
2022-09-14T20:46:43.713Z,100.00
2022-09-14T20:49:12.413Z,100.00
2022-09-14T20:51:39.836Z,100.00
2022-09-14T20:54:10.444Z,100.00
2022-09-14T20:56:37.192Z,100.00
2022-09-14T20:59:09.510Z,100.00
2022-09-14T21:01:38.296Z,100.00
2022-09-14T21:04:09.082Z,100.00
2022-09-14T21:06:37.948Z,100.00
2022-09-14T21:09:08.801Z,100.00
2022-09-14T21:11:35.640Z,100.00
2022-09-14T21:14:02.566Z,100.00
2022-09-14T21:16:37.772Z,100.00
2022-09-14T21:19:07.188Z,100.00
2022-09-14T21:21:34.216Z,100.00
2022-09-14T21:24:05.546Z,100.00
2022-09-14T21:26:34.678Z,100.00
2022-09-14T21:29:06.306Z,100.00
2022-09-14T21:31:34.990Z,100.00
2022-09-14T21:34:02.867Z,100.00
2022-09-14T21:36:35.956Z,100.00
2022-09-14T21:39:08.459Z,100.00
2022-09-14T21:41:35.922Z,100.00
2022-09-14T21:44:02.714Z,100.00
2022-09-14T21:46:29.237Z,100.00
2022-09-14T21:48:56.612Z,100.00
2022-09-14T21:51:31.800Z,100.00
2022-09-14T21:54:00.442Z,100.00
2022-09-14T21:56:31.563Z,100.00
2022-09-14T21:59:02.400Z,100.00
2022-09-14T22:01:29.953Z,100.00
2022-09-14T22:03:57.446Z,100.00
2022-09-14T22:06:31.157Z,100.00
2022-09-14T22:09:00.970Z,100.00
2022-09-14T22:11:31.259Z,100.00
2022-09-14T22:14:06.082Z,100.00
2022-09-14T22:16:34.994Z,100.00
2022-09-14T22:19:06.614Z,100.00
2022-09-14T22:21:35.906Z,100.00
2022-09-14T22:24:14.631Z,100.00
2022-09-14T22:26:42.312Z,100.00
2022-09-14T22:29:09.099Z,100.00
2022-09-14T22:31:38.091Z,100.00
2022-09-14T22:34:08.130Z,100.00
2022-09-14T22:36:37.664Z,100.00
2022-09-14T22:39:05.083Z,100.00
2022-09-14T22:41:31.659Z,100.00
2022-09-14T22:43:58.122Z,100.00
2022-09-14T22:46:25.399Z,100.00
2022-09-14T22:48:53.149Z,100.00
2022-09-14T22:51:22.369Z,100.00
2022-09-14T22:53:49.395Z,100.00
2022-09-14T22:56:21.897Z,100.00
2022-09-14T22:58:49.485Z,100.00
2022-09-14T23:01:39.387Z,100.00
2022-09-14T23:04:09.333Z,100.00
2022-09-14T23:06:38.502Z,100.00
2022-09-14T23:09:06.118Z,100.00
2022-09-14T23:11:32.907Z,100.00
2022-09-14T23:13:59.346Z,100.00
2022-09-14T23:16:28.872Z,100.00
2022-09-14T23:18:58.814Z,100.00
2022-09-14T23:21:28.604Z,100.00
2022-09-14T23:24:00.792Z,100.00
2022-09-14T23:26:27.800Z,100.00
2022-09-14T23:28:58.105Z,100.00
2022-09-14T23:31:25.665Z,100.00
2022-09-14T23:33:53.906Z,100.00
2022-09-14T23:36:24.944Z,100.00
2022-09-14T23:38:52.322Z,100.00
2022-09-14T23:41:22.554Z,100.00
2022-09-14T23:43:49.533Z,100.00
2022-09-14T23:46:19.126Z,100.00
2022-09-14T23:48:46.718Z,100.00
2022-09-14T23:51:15.407Z,100.00
2022-09-14T23:53:44.768Z,100.00
2022-09-14T23:56:11.425Z,100.00
2022-09-14T23:58:39.789Z,100.00
